Terminal Aerodrome Forecast
Issued by NWS Springfield, MO

Home | Current Version | Previous Version | Text Only | Print | Product List | Glossary On
Versions: 1 2 3 4 5 6 7 8 9 10 11 12 13 14 15 16 17 18 19 20 21 22 23 24 25 26 27 28 29 30 31 32 33 34 35 36
000
FTUS43 KSGF 151700
TAFSGF
TAF
KSGF 151720Z 1518/1618 23012KT P6SM SCT050
     FM152100 28012G17KT P6SM VCTS BKN040CB OVC080
     FM160100 03006KT P6SM SCT015 OVC025
     FM160300 01005KT P6SM OVC010
     FM160800 02007KT P6SM OVC007=

USA.gov is the U.S. government's official web portal to all federal, state and local government web resources and services.